Time;durP1;ratioP1;P1;durP2;ratioP2;P2;SDS_P1;SDS_P2;PMS_P1;PMS_P2;Temp;Humidity;BMP_temperature;BMP_pressure;BME280_temperature;BME280_humidity;BME280_pressure;Samples;Min_cycle;Max_cycle;Signal;HPM_P1;HPM_P2
2022/04/23 00:00:27;;;;;;;20.08;18.33;;;;;;;-141.48;100.00;69781.59;5207376;28;20025;-59
2022/04/23 00:02:59;;;;;;;17.88;16.35;;;;;;;-141.48;100.00;69781.59;5210417;28;20028;-58
2022/04/23 00:05:29;;;;;;;19.38;17.85;;;;;;;-141.48;100.00;69781.59;5229180;28;20040;-58
2022/04/23 00:08:00;;;;;;;19.80;17.95;;;;;;;-141.48;100.00;69781.59;5211221;28;20029;-59
2022/04/23 00:10:30;;;;;;;19.48;17.95;;;;;;;-141.48;100.00;69781.59;5210799;28;20029;-59
2022/04/23 00:13:01;;;;;;;19.77;17.80;;;;;;;-141.48;100.00;69781.59;5210804;28;20056;-59
2022/04/23 00:15:37;;;;;;;20.08;18.27;;;;;;;-141.48;100.00;69781.59;5210661;28;20078;-58
2022/04/23 00:18:08;;;;;;;21.13;18.95;;;;;;;-141.48;100.00;69781.59;5210559;28;20056;-58
2022/04/23 00:20:39;;;;;;;21.17;19.20;;;;;;;-141.48;100.00;69781.59;5210957;28;20544;-59
2022/04/23 00:23:10;;;;;;;22.35;20.35;;;;;;;-141.48;100.00;69781.59;5211398;28;20116;-59
2022/04/23 00:25:47;;;;;;;21.42;19.30;;;;;;;-141.48;100.00;69781.59;5210520;28;20029;-59
2022/04/23 00:28:18;;;;;;;19.85;18.13;;;;;;;-141.48;100.00;69781.59;5210516;28;20017;-59
2022/04/23 00:30:49;;;;;;;19.67;18.08;;;;;;;-141.48;100.00;69781.59;5210326;28;20596;-59
2022/04/23 00:33:20;;;;;;;21.58;19.77;;;;;;;-141.48;100.00;69781.59;5210233;28;20033;-58
2022/04/23 00:35:50;;;;;;;24.20;21.88;;;;;;;-141.48;100.00;69781.59;5210247;28;20025;-58
2022/04/23 00:38:21;;;;;;;21.02;19.13;;;;;;;-141.48;100.00;69781.59;5210429;28;20040;-59
2022/04/23 00:40:51;;;;;;;19.60;17.95;;;;;;;-141.48;100.00;69781.59;5210470;28;20029;-59
2022/04/23 00:43:27;;;;;;;22.13;20.23;;;;;;;-141.48;100.00;69781.59;5210131;28;20068;-58
2022/04/23 00:45:58;;;;;;;19.45;17.98;;;;;;;-141.48;100.00;69781.59;5210199;28;20095;-58
2022/04/23 00:48:29;;;;;;;21.65;20.05;;;;;;;-141.48;100.00;69781.59;5210334;28;20467;-59
2022/04/23 00:51:01;;;;;;;22.20;20.15;;;;;;;-141.48;100.00;69781.59;5209799;28;20034;-59
2022/04/23 00:53:31;;;;;;;21.88;19.98;;;;;;;-141.48;100.00;69781.59;5209636;28;20102;-59
2022/04/23 00:56:02;;;;;;;20.52;18.95;;;;;;;-141.48;100.00;69781.59;5210554;28;20025;-59
2022/04/23 00:58:33;;;;;;;24.17;22.00;;;;;;;-141.48;100.00;69781.59;5227879;28;20052;-58
2022/04/23 01:01:04;;;;;;;17.67;16.15;;;;;;;-141.48;100.00;69781.59;5228158;28;20060;-59
2022/04/23 01:03:34;;;;;;;22.50;20.80;;;;;;;-141.48;100.00;69781.59;5209574;28;20105;-59
2022/04/23 01:06:06;;;;;;;22.00;20.00;;;;;;;-141.48;100.00;69781.59;5209998;28;20115;-59
2022/04/23 01:08:37;;;;;;;21.35;19.83;;;;;;;-141.48;100.00;69781.59;5209896;28;20498;-58
2022/04/23 01:11:08;;;;;;;22.40;20.45;;;;;;;-141.48;100.00;69781.59;5209798;28;20513;-59
2022/04/23 01:13:38;;;;;;;21.02;19.25;;;;;;;-141.48;100.00;69781.59;5209019;28;20029;-58
2022/04/23 01:16:09;;;;;;;21.65;19.75;;;;;;;-141.48;100.00;69781.59;5209516;28;20021;-59
2022/04/23 01:18:42;;;;;;;23.50;21.50;;;;;;;-141.48;100.00;69781.59;5208232;22;20049;-60
2022/04/23 01:21:13;;;;;;;22.92;20.95;;;;;;;-141.48;100.00;69781.59;5188544;28;20018;-58
2022/04/23 01:23:47;;;;;;;21.38;19.88;;;;;;;-141.48;100.00;69781.59;5188209;28;20033;-57
2022/04/23 01:26:26;;;;;;;20.50;18.63;;;;;;;-141.48;100.00;69781.59;5188444;28;20486;-57
2022/04/23 01:28:58;;;;;;;27.63;22.63;;;;;;;-141.48;100.00;69781.59;5188496;28;20400;-58
2022/04/23 01:31:28;;;;;;;22.10;20.42;;;;;;;-141.48;100.00;69781.59;5188342;28;20029;-58
2022/04/23 01:33:59;;;;;;;29.75;23.08;;;;;;;-141.48;100.00;69781.59;5187950;28;20187;-58
2022/04/23 01:36:29;;;;;;;25.73;23.48;;;;;;;-141.48;100.00;69781.59;5188200;28;20564;-59
2022/04/23 01:39:00;;;;;;;23.25;21.13;;;;;;;-141.48;100.00;69781.59;5188550;28;20052;-58
2022/04/23 01:41:30;;;;;;;21.23;19.33;;;;;;;-141.48;100.00;69781.59;5188215;28;20394;-58
2022/04/23 01:44:00;;;;;;;25.15;23.10;;;;;;;-141.48;100.00;69781.59;5188055;28;20025;-59
2022/04/23 01:46:31;;;;;;;22.92;20.80;;;;;;;-141.48;100.00;69781.59;5188259;28;20029;-60
2022/04/23 01:49:01;;;;;;;24.17;22.17;;;;;;;-141.48;100.00;69781.59;5188229;28;20032;-59
2022/04/23 01:51:32;;;;;;;25.02;22.98;;;;;;;-141.48;100.00;69781.59;5188072;28;20366;-59
2022/04/23 01:54:02;;;;;;;25.25;23.35;;;;;;;-141.48;100.00;69781.59;5205383;28;20531;-59
2022/04/23 01:56:33;;;;;;;23.73;21.58;;;;;;;-141.48;100.00;69781.59;5187992;28;20022;-60
2022/04/23 01:59:03;;;;;;;25.20;23.15;;;;;;;-141.48;100.00;69781.59;5187612;28;20021;-58
2022/04/23 02:01:35;;;;;;;25.25;23.08;;;;;;;-141.48;100.00;69781.59;5206025;28;20474;-59
2022/04/23 02:04:06;;;;;;;26.50;24.27;;;;;;;-141.48;100.00;69781.59;5187543;28;20497;-59
2022/04/23 02:06:37;;;;;;;24.00;22.20;;;;;;;-141.48;100.00;69781.59;5187594;28;20033;-59
2022/04/23 02:09:08;;;;;;;25.52;23.25;;;;;;;-141.48;100.00;69781.59;5187665;28;20065;-58
2022/04/23 02:11:38;;;;;;;25.88;23.88;;;;;;;-141.48;100.00;69781.59;5187350;28;20025;-58
2022/04/23 02:14:09;;;;;;;26.73;24.00;;;;;;;-141.48;100.00;69781.59;5187184;28;20037;-58
2022/04/23 02:16:40;;;;;;;27.15;24.42;;;;;;;-141.48;100.00;69781.59;5187419;28;20021;-59
2022/04/23 02:19:10;;;;;;;24.33;22.60;;;;;;;-141.48;100.00;69781.59;5187359;28;20047;-59
2022/04/23 02:21:41;;;;;;;27.13;24.98;;;;;;;-141.48;100.00;69781.59;5187634;28;20026;-59
2022/04/23 02:24:11;;;;;;;22.67;20.75;;;;;;;-141.48;100.00;69781.59;5186395;28;20029;-59
2022/04/23 02:26:42;;;;;;;24.98;23.08;;;;;;;-141.48;100.00;69781.59;5187586;28;20389;-59
2022/04/23 02:29:12;;;;;;;29.05;26.50;;;;;;;-141.48;100.00;69781.59;5187627;28;20573;-64
2022/04/23 02:31:43;;;;;;;24.35;22.55;;;;;;;-141.48;100.00;69781.59;5187556;28;20026;-59
2022/04/23 02:34:13;;;;;;;25.63;23.45;;;;;;;-141.48;100.00;69781.59;5187016;28;20033;-62
2022/04/23 02:36:44;;;;;;;24.67;22.42;;;;;;;-141.48;100.00;69781.59;5171352;28;20079;-58
2022/04/23 02:39:14;;;;;;;26.00;24.10;;;;;;;-141.48;100.00;69781.59;5187330;28;20052;-60
2022/04/23 02:41:44;;;;;;;29.25;26.65;;;;;;;-141.48;100.00;69781.59;5187120;28;20024;-62
2022/04/23 02:44:15;;;;;;;27.33;25.27;;;;;;;-141.48;100.00;69781.59;5204511;28;20041;-59
2022/04/23 02:46:45;;;;;;;25.10;23.20;;;;;;;-141.48;100.00;69781.59;5187029;28;20029;-59
2022/04/23 02:49:16;;;;;;;28.27;26.05;;;;;;;-141.48;100.00;69781.59;5187223;28;20036;-59
2022/04/23 02:51:46;;;;;;;25.20;23.25;;;;;;;-141.48;100.00;69781.59;5187268;28;20447;-59
2022/04/23 02:54:18;;;;;;;26.42;24.10;;;;;;;-141.48;100.00;69781.59;5186900;28;20025;-60
2022/04/23 02:56:50;;;;;;;24.55;22.33;;;;;;;-141.48;100.00;69781.59;5187225;28;20509;-59
2022/04/23 02:59:20;;;;;;;28.73;26.38;;;;;;;-141.48;100.00;69781.59;5170874;28;20037;-59
2022/04/23 03:01:52;;;;;;;28.48;26.08;;;;;;;-141.48;100.00;69781.59;5187139;28;20397;-59
2022/04/23 03:04:22;;;;;;;27.23;24.85;;;;;;;-141.48;100.00;69781.59;5186850;28;20087;-59
2022/04/23 03:06:54;;;;;;;26.92;24.80;;;;;;;-141.48;100.00;69781.59;5187967;28;20026;-57
2022/04/23 03:09:24;;;;;;;28.85;26.17;;;;;;;-141.48;100.00;69781.59;5188163;28;20025;-59
2022/04/23 03:11:55;;;;;;;27.20;25.00;;;;;;;-141.48;100.00;69781.59;5205782;28;20021;-59
2022/04/23 03:14:26;;;;;;;27.52;25.58;;;;;;;-141.48;100.00;69781.59;5187704;28;20030;-60
2022/04/23 03:16:57;;;;;;;29.15;26.10;;;;;;;-141.48;100.00;69781.59;5187212;28;20091;-59
2022/04/23 03:19:27;;;;;;;27.05;24.42;;;;;;;-141.48;100.00;69781.59;5186965;28;20025;-59
2022/04/23 03:21:58;;;;;;;26.75;24.58;;;;;;;-141.48;100.00;69781.59;5187092;28;20505;-59
2022/04/23 03:24:28;;;;;;;27.75;25.52;;;;;;;-141.48;100.00;69781.59;5186781;28;20030;-59
2022/04/23 03:26:59;;;;;;;25.95;24.00;;;;;;;-141.48;100.00;69781.59;5186747;28;20030;-59
2022/04/23 03:29:30;;;;;;;26.67;24.40;;;;;;;-141.48;100.00;69781.59;5187008;28;20033;-58
2022/04/23 03:32:00;;;;;;;27.42;25.52;;;;;;;-141.48;100.00;69781.59;5186930;28;20076;-59
2022/04/23 03:34:31;;;;;;;29.00;25.80;;;;;;;-141.48;100.00;69781.59;5186269;28;20056;-59
2022/04/23 03:37:02;;;;;;;28.05;25.67;;;;;;;-141.48;100.00;69781.59;5207549;28;20017;-60
2022/04/23 03:39:33;;;;;;;29.25;26.75;;;;;;;-141.48;100.00;69781.59;5190480;28;20511;-59
2022/04/23 03:42:04;;;;;;;29.38;26.27;;;;;;;-141.48;100.00;69781.59;5190389;28;20023;-58
2022/04/23 03:44:34;;;;;;;28.33;25.83;;;;;;;-141.48;100.00;69781.59;5190300;28;20041;-60
2022/04/23 03:47:05;;;;;;;25.75;23.63;;;;;;;-141.48;100.00;69781.59;5190747;28;20171;-58
2022/04/23 03:49:35;;;;;;;27.05;24.77;;;;;;;-141.48;100.00;69781.59;5190208;28;20096;-59
2022/04/23 03:52:06;;;;;;;30.20;27.55;;;;;;;-141.48;100.00;69781.59;5190267;28;20025;-59
2022/04/23 03:54:37;;;;;;;27.50;24.95;;;;;;;-141.48;100.00;69781.59;5189933;28;20025;-58
2022/04/23 03:57:08;;;;;;;27.13;24.77;;;;;;;-141.48;100.00;69781.59;5190502;28;20017;-59
2022/04/23 03:59:38;;;;;;;28.02;24.92;;;;;;;-141.48;100.00;69781.59;5190482;28;20033;-59
2022/04/23 04:02:09;;;;;;;30.73;27.95;;;;;;;-141.48;100.00;69781.59;5189953;28;20032;-60
2022/04/23 04:04:41;;;;;;;28.20;25.88;;;;;;;-141.48;100.00;69781.59;5189813;28;20037;-59
2022/04/23 04:07:21;;;;;;;32.75;28.77;;;;;;;-141.48;100.00;69781.59;5190148;28;20485;-59
2022/04/23 04:09:51;;;;;;;29.45;27.17;;;;;;;-141.48;100.00;69781.59;5173667;28;20033;-59
2022/04/23 04:12:22;;;;;;;30.33;27.92;;;;;;;-141.48;100.00;69781.59;5189647;28;20036;-59
2022/04/23 04:14:52;;;;;;;28.98;26.27;;;;;;;-141.48;100.00;69781.59;5189704;28;20029;-58
2022/04/23 04:17:25;;;;;;;30.05;26.98;;;;;;;-141.48;100.00;69781.59;5189773;28;20022;-58
2022/04/23 04:19:55;;;;;;;29.52;27.30;;;;;;;-141.48;100.00;69781.59;5189908;28;20671;-59
2022/04/23 04:22:26;;;;;;;29.55;27.23;;;;;;;-141.48;100.00;69781.59;5189727;28;20079;-58
2022/04/23 04:24:57;;;;;;;29.83;27.40;;;;;;;-141.48;100.00;69781.59;5206727;28;20109;-61
2022/04/23 04:27:28;;;;;;;31.75;29.25;;;;;;;-141.48;100.00;69781.59;5189523;28;20039;-59
2022/04/23 04:29:59;;;;;;;30.27;27.83;;;;;;;-141.48;100.00;69781.59;5189484;28;20025;-59
2022/04/23 04:32:29;;;;;;;31.45;28.60;;;;;;;-141.48;100.00;69781.59;5189730;28;20532;-59
2022/04/23 04:35:00;;;;;;;29.88;27.58;;;;;;;-141.48;100.00;69781.59;5189134;28;20053;-58
2022/04/23 04:37:30;;;;;;;31.55;29.30;;;;;;;-141.48;100.00;69781.59;5189589;28;20412;-59
2022/04/23 04:40:01;;;;;;;33.53;30.58;;;;;;;-141.48;100.00;69781.59;5189553;28;20032;-58
2022/04/23 04:42:31;;;;;;;30.38;27.75;;;;;;;-141.48;100.00;69781.59;5189390;28;20060;-59
2022/04/23 04:45:03;;;;;;;32.95;30.10;;;;;;;-141.48;100.00;69781.59;5188996;28;20378;-58
2022/04/23 04:47:33;;;;;;;35.33;31.88;;;;;;;-141.48;100.00;69781.59;5188300;28;20017;-59
2022/04/23 04:50:04;;;;;;;32.45;29.48;;;;;;;-141.48;100.00;69781.59;5189167;28;20035;-58
2022/04/23 04:52:35;;;;;;;33.38;30.77;;;;;;;-141.48;100.00;69781.59;5189577;28;20025;-58
2022/04/23 04:55:06;;;;;;;37.78;33.42;;;;;;;-141.48;100.00;69781.59;5188629;28;20028;-58
2022/04/23 04:57:36;;;;;;;30.05;27.38;;;;;;;-141.48;100.00;69781.59;5189302;28;20056;-58
2022/04/23 05:00:07;;;;;;;32.63;29.52;;;;;;;-141.48;100.00;69781.59;5189372;28;20029;-58
2022/04/23 05:02:39;;;;;;;33.30;30.40;;;;;;;-141.48;100.00;69781.59;5188869;28;20033;-60
2022/04/23 05:05:10;;;;;;;29.88;27.33;;;;;;;-141.48;100.00;69781.59;5188519;28;20537;-60
2022/04/23 05:07:40;;;;;;;31.35;28.60;;;;;;;-141.48;100.00;69781.59;5188612;28;20029;-59
2022/04/23 05:10:11;;;;;;;32.00;29.38;;;;;;;-141.48;100.00;69781.59;5188958;28;20083;-57
2022/04/23 05:12:41;;;;;;;35.53;32.22;;;;;;;-141.48;100.00;69781.59;5188889;28;20075;-59
2022/04/23 05:15:12;;;;;;;32.67;29.70;;;;;;;-141.48;100.00;69781.59;5188483;28;20482;-59
2022/04/23 05:17:42;;;;;;;31.92;29.58;;;;;;;-141.48;100.00;69781.59;5188598;28;20025;-59
2022/04/23 05:20:13;;;;;;;34.22;31.17;;;;;;;-141.48;100.00;69781.59;5188678;28;20086;-61
2022/04/23 05:22:43;;;;;;;32.83;30.23;;;;;;;-141.48;100.00;69781.59;5188648;28;20100;-58
2022/04/23 05:25:13;;;;;;;35.03;32.03;;;;;;;-141.48;100.00;69781.59;5188418;28;20036;-62
2022/04/23 05:27:44;;;;;;;39.53;32.58;;;;;;;-141.48;100.00;69781.59;5188734;28;20061;-59
2022/04/23 05:30:14;;;;;;;34.92;31.67;;;;;;;-141.48;100.00;69781.59;5188411;28;20029;-58
2022/04/23 05:32:45;;;;;;;33.42;30.70;;;;;;;-141.48;100.00;69781.59;5188392;28;20033;-59
2022/04/23 05:35:15;;;;;;;34.30;31.20;;;;;;;-141.48;100.00;69781.59;5188028;28;20101;-57
2022/04/23 05:37:46;;;;;;;37.50;34.08;;;;;;;-141.48;100.00;69781.59;5188291;28;20017;-59
2022/04/23 05:40:16;;;;;;;32.97;30.08;;;;;;;-141.48;100.00;69781.59;5188440;28;20052;-59
2022/04/23 05:42:47;;;;;;;32.30;29.63;;;;;;;-141.48;100.00;69781.59;5188429;28;20489;-63
2022/04/23 05:45:17;;;;;;;35.05;32.00;;;;;;;-141.48;100.00;69781.59;5205732;28;20029;-58
2022/04/23 05:47:48;;;;;;;33.53;30.08;;;;;;;-141.48;100.00;69781.59;5188430;28;20037;-57
2022/04/23 05:50:18;;;;;;;34.35;31.15;;;;;;;-141.48;100.00;69781.59;5182845;28;20080;-60
2022/04/23 05:52:49;;;;;;;32.45;29.48;;;;;;;-141.48;100.00;69781.59;5205818;28;20031;-59
2022/04/23 05:55:19;;;;;;;37.17;34.05;;;;;;;-141.48;100.00;69781.59;5187513;28;20029;-57
2022/04/23 05:57:50;;;;;;;32.95;30.02;;;;;;;-141.48;100.00;69781.59;5187893;28;20033;-59
2022/04/23 06:00:21;;;;;;;34.25;31.40;;;;;;;-141.48;100.00;69781.59;5187476;28;20036;-59
2022/04/23 06:02:51;;;;;;;31.33;28.75;;;;;;;-141.48;100.00;69781.59;5187832;28;20025;-60
2022/04/23 06:05:22;;;;;;;37.95;34.05;;;;;;;-141.48;100.00;69781.59;5187674;28;20022;-58
2022/04/23 06:07:53;;;;;;;34.00;30.52;;;;;;;-141.48;100.00;69781.59;5187216;28;20036;-58
2022/04/23 06:10:23;;;;;;;33.05;29.92;;;;;;;-141.48;100.00;69781.59;5187599;28;20509;-59
2022/04/23 06:12:54;;;;;;;35.45;31.98;;;;;;;-141.48;100.00;69781.59;5187639;28;20033;-60
2022/04/23 06:15:24;;;;;;;33.38;30.50;;;;;;;-141.48;100.00;69781.59;5187305;28;20032;-60
2022/04/23 06:17:55;;;;;;;33.53;30.73;;;;;;;-141.48;100.00;69781.59;5187633;28;20030;-59
2022/04/23 06:20:25;;;;;;;35.72;31.27;;;;;;;-141.48;100.00;69781.59;5187482;28;20393;-59
2022/04/23 06:22:55;;;;;;;34.35;31.23;;;;;;;-141.48;100.00;69781.59;5187805;28;20026;-59
2022/04/23 06:25:26;;;;;;;33.35;29.52;;;;;;;-141.48;100.00;69781.59;5186625;28;20033;-59
2022/04/23 06:27:57;;;;;;;35.28;32.28;;;;;;;-141.48;100.00;69781.59;5187221;28;20093;-60
2022/04/23 06:30:28;;;;;;;34.22;31.17;;;;;;;-141.48;100.00;69781.59;5170992;28;20045;-59
2022/04/23 06:32:58;;;;;;;36.08;32.65;;;;;;;-141.48;100.00;69781.59;5186953;28;20036;-61
2022/04/23 06:35:28;;;;;;;31.95;28.73;;;;;;;-141.48;100.00;69781.59;5184276;28;20125;-57
2022/04/23 06:37:59;;;;;;;32.65;29.55;;;;;;;-141.48;100.00;69781.59;5184564;28;20026;-62
2022/04/23 06:40:29;;;;;;;34.05;31.45;;;;;;;-141.48;100.00;69781.59;5185955;28;20083;-59
2022/04/23 06:43:00;;;;;;;31.13;28.20;;;;;;;-141.48;100.00;69781.59;5187267;28;20021;-59
2022/04/23 06:45:30;;;;;;;30.25;27.23;;;;;;;-141.48;100.00;69781.59;5187083;28;20025;-59
2022/04/23 06:48:05;;;;;;;31.65;28.70;;;;;;;-141.48;100.00;69781.59;5187317;28;20071;-58
2022/04/23 06:50:36;;;;;;;29.40;26.98;;;;;;;-141.48;100.00;69781.59;5187151;28;20455;-58
2022/04/23 06:53:07;;;;;;;29.20;26.23;;;;;;;-141.48;100.00;69781.59;5187517;28;20056;-59
2022/04/23 06:55:37;;;;;;;29.58;26.90;;;;;;;-141.48;100.00;69781.59;5187119;28;20036;-59
2022/04/23 06:58:08;;;;;;;29.60;27.35;;;;;;;-141.48;100.00;69781.59;5187271;28;20053;-58
2022/04/23 07:00:41;;;;;;;29.35;27.05;;;;;;;-141.48;100.00;69781.59;5187099;28;20033;-59
2022/04/23 07:03:11;;;;;;;31.58;28.67;;;;;;;-141.48;100.00;69781.59;5186969;28;20485;-58
2022/04/23 07:05:42;;;;;;;29.92;27.35;;;;;;;-141.48;100.00;69781.59;5186564;28;20066;-57
2022/04/23 07:08:12;;;;;;;29.35;26.27;;;;;;;-141.48;100.00;69781.59;5204940;28;20026;-58
2022/04/23 07:10:44;;;;;;;28.60;25.92;;;;;;;-141.48;100.00;69781.59;5188808;28;20459;-59
2022/04/23 07:13:15;;;;;;;27.88;25.35;;;;;;;-141.48;100.00;69781.59;5191460;28;20025;-58
2022/04/23 07:15:46;;;;;;;25.88;23.77;;;;;;;-141.48;100.00;69781.59;5189892;28;20030;-60
2022/04/23 07:18:17;;;;;;;30.98;28.33;;;;;;;-141.48;100.00;69781.59;5208349;23;20048;-79
2022/04/23 07:20:47;;;;;;;27.08;24.67;;;;;;;-141.48;100.00;69781.59;5204875;28;20479;-79
2022/04/23 07:26:07;;;;;;;26.13;23.63;;;;;;;-141.48;100.00;69781.59;5193205;28;20485;-79
2022/04/23 07:28:38;;;;;;;27.45;24.95;;;;;;;-141.48;100.00;69781.59;5193037;28;20030;-79
2022/04/23 07:31:08;;;;;;;26.15;23.65;;;;;;;-141.48;100.00;69781.59;5192766;28;20036;-80
2022/04/23 07:39:17;;;;;;;27.45;25.00;;;;;;;-141.48;100.00;69781.59;5193934;28;20036;-80
2022/04/23 07:41:47;;;;;;;25.00;22.88;;;;;;;-141.48;100.00;69781.59;5194549;28;20029;-79
2022/04/23 07:44:17;;;;;;;23.13;21.13;;;;;;;-141.48;100.00;69781.59;5199676;28;20048;-79
2022/04/23 07:46:49;;;;;;;26.70;23.15;;;;;;;-141.48;100.00;69781.59;5214756;28;20025;-80
2022/04/23 07:49:19;;;;;;;21.70;19.63;;;;;;;-141.48;100.00;69781.59;5214618;28;20026;-79
2022/04/23 07:51:50;;;;;;;26.70;24.40;;;;;;;-141.48;100.00;69781.59;5214871;28;20037;-80
2022/04/23 07:54:21;;;;;;;22.13;20.40;;;;;;;-141.48;100.00;69781.59;5214618;28;20048;-80
2022/04/23 07:56:51;;;;;;;23.15;21.02;;;;;;;-141.48;100.00;69781.59;5214276;28;20024;-79
2022/04/23 07:59:22;;;;;;;22.15;20.38;;;;;;;-141.48;100.00;69781.59;5212955;28;20117;-79
2022/04/23 08:01:52;;;;;;;20.73;18.45;;;;;;;-141.48;100.00;69781.59;5214663;28;20499;-79
2022/04/23 08:04:23;;;;;;;21.55;19.13;;;;;;;-141.48;100.00;69781.59;5215007;28;20013;-79
2022/04/23 08:06:53;;;;;;;22.08;20.05;;;;;;;-141.48;100.00;69781.59;5215644;28;20060;-79
2022/04/23 08:09:23;;;;;;;20.85;19.08;;;;;;;-141.48;100.00;69781.59;5216467;28;20057;-79
2022/04/23 08:11:54;;;;;;;19.27;17.52;;;;;;;-141.48;100.00;69781.59;5216905;28;20120;-78
2022/04/23 08:14:25;;;;;;;20.48;18.80;;;;;;;-141.48;100.00;69781.59;5215211;28;20032;-79
2022/04/23 08:16:56;;;;;;;19.85;18.13;;;;;;;-141.48;100.00;69781.59;5217288;28;20017;-79
2022/04/23 08:19:26;;;;;;;19.73;17.80;;;;;;;-141.48;100.00;69781.59;5221600;28;20033;-78
2022/04/23 08:21:57;;;;;;;18.80;17.27;;;;;;;-141.48;100.00;69781.59;5232262;28;20032;-77
2022/04/23 08:24:30;;;;;;;20.17;18.55;;;;;;;-141.48;100.00;69781.59;5233393;28;20042;-79
2022/04/23 08:27:01;;;;;;;19.45;17.80;;;;;;;-141.48;100.00;69781.59;5233759;28;20026;-78
2022/04/23 08:32:21;;;;;;;23.50;16.83;;;;;;;-141.48;100.00;69781.59;5233473;28;20010;-78
2022/04/23 08:34:51;;;;;;;18.95;17.25;;;;;;;-141.48;100.00;69781.59;5225320;28;20026;-79
2022/04/23 08:37:22;;;;;;;19.65;17.83;;;;;;;-141.48;100.00;69781.59;5218468;28;20034;-79
2022/04/23 08:39:53;;;;;;;20.23;18.58;;;;;;;-141.48;100.00;69781.59;5217449;28;20483;-79
2022/04/23 08:42:24;;;;;;;18.13;16.17;;;;;;;-141.48;100.00;69781.59;5218293;28;20056;-78
2022/04/23 08:44:55;;;;;;;20.50;18.45;;;;;;;-141.48;100.00;69781.59;5215984;28;20025;-79
2022/04/23 08:47:26;;;;;;;18.50;16.73;;;;;;;-141.48;100.00;69781.59;5217212;28;20018;-78
2022/04/23 08:49:58;;;;;;;18.83;17.05;;;;;;;-141.48;100.00;69781.59;5216197;28;20025;-77
2022/04/23 08:52:33;;;;;;;20.83;18.98;;;;;;;-141.48;100.00;69781.59;5215916;28;20384;-79
2022/04/23 08:55:05;;;;;;;20.00;18.08;;;;;;;-141.48;100.00;69781.59;5214442;28;20017;-81
2022/04/23 08:57:36;;;;;;;18.40;16.80;;;;;;;-141.48;100.00;69781.59;5216174;28;20053;-79
2022/04/23 09:00:08;;;;;;;17.83;16.08;;;;;;;-141.48;100.00;69781.59;5216152;28;20476;-79
2022/04/23 09:02:41;;;;;;;17.98;16.17;;;;;;;-141.48;100.00;69781.59;5216131;28;20032;-80
2022/04/23 09:05:14;;;;;;;18.42;16.63;;;;;;;-141.48;100.00;69781.59;5215522;28;20025;-81
2022/04/23 09:07:53;;;;;;;19.55;17.85;;;;;;;-141.48;100.00;69781.59;5214257;28;20325;-79
2022/04/23 09:10:47;;;;;;;18.60;16.80;;;;;;;-141.48;100.00;69781.59;5214644;28;20037;-81
2022/04/23 09:13:26;;;;;;;23.65;16.40;;;;;;;-141.48;100.00;69781.59;5216027;28;20072;-78
2022/04/23 09:24:45;;;;;;;15.90;14.60;;;;;;;-141.48;100.00;69781.59;5214487;28;19920;-81
2022/04/23 09:27:16;;;;;;;16.13;15.00;;;;;;;-141.48;100.00;69781.59;5215303;28;20079;-79
2022/04/23 09:30:02;;;;;;;21.48;15.60;;;;;;;-141.48;100.00;69781.59;5213821;28;20060;-79
2022/04/23 09:32:33;;;;;;;15.07;14.00;;;;;;;-141.48;100.00;69781.59;5213889;28;20025;-79
2022/04/23 09:35:09;;;;;;;17.10;14.25;;;;;;;-141.48;100.00;69781.59;5214710;28;20029;-78
2022/04/23 09:40:29;;;;;;;23.55;14.65;;;;;;;-141.48;100.00;69781.59;5215586;28;20090;-78
2022/04/23 09:43:02;;;;;;;15.35;13.80;;;;;;;-141.48;100.00;69781.59;5212901;28;20028;-79
2022/04/23 09:45:36;;;;;;;15.70;14.45;;;;;;;-141.48;100.00;69781.59;5215114;28;20025;-79
2022/04/23 09:48:16;;;;;;;14.80;13.48;;;;;;;-141.48;100.00;69781.59;5213452;28;20047;-81
2022/04/23 09:50:49;;;;;;;15.95;14.38;;;;;;;-141.48;100.00;69781.59;5213416;28;20510;-80
2022/04/23 09:53:46;;;;;;;22.35;15.18;;;;;;;-141.48;100.00;69781.59;5212756;28;20029;-79
2022/04/23 09:56:25;;;;;;;14.93;13.52;;;;;;;-141.48;100.00;69781.59;5195835;28;20487;-80
2022/04/23 09:59:29;;;;;;;15.73;14.20;;;;;;;-141.48;100.00;69781.59;5197682;28;20025;-77
2022/04/23 10:02:01;;;;;;;14.88;13.57;;;;;;;-141.48;100.00;69781.59;5195169;28;20021;-78
2022/04/23 10:04:33;;;;;;;14.27;13.02;;;;;;;-141.48;100.00;69781.59;5208285;28;20029;-80
2022/04/23 10:07:05;;;;;;;14.95;13.13;;;;;;;-141.48;100.00;69781.59;5213698;28;20219;-80
2022/04/23 10:09:41;;;;;;;14.88;13.45;;;;;;;-141.48;100.00;69781.59;5213526;28;20052;-79
2022/04/23 10:12:17;;;;;;;14.90;13.80;;;;;;;-141.48;100.00;69781.59;5214821;28;20052;-77
2022/04/23 10:14:56;;;;;;;14.55;13.23;;;;;;;-141.48;100.00;69781.59;5212850;28;20029;-79
2022/04/23 10:17:32;;;;;;;14.50;13.25;;;;;;;-141.48;100.00;69781.59;5214460;28;20033;-78
2022/04/23 10:20:03;;;;;;;13.43;12.40;;;;;;;-141.48;100.00;69781.59;5210021;28;20021;-80
2022/04/23 10:23:03;;;;;;;16.98;14.27;;;;;;;-141.48;100.00;69781.59;5210986;28;20029;-79
2022/04/23 10:25:45;;;;;;;20.05;12.20;;;;;;;-141.48;100.00;69781.59;5210006;28;20072;-77
2022/04/23 10:28:17;;;;;;;13.70;12.68;;;;;;;-141.48;100.00;69781.59;5209164;28;20022;-78
2022/04/23 10:31:12;;;;;;;15.25;13.93;;;;;;;-141.48;100.00;69781.59;5212208;28;20025;-78
2022/04/23 10:33:47;;;;;;;14.10;12.70;;;;;;;-141.48;100.00;69781.59;5209111;28;20100;-77
2022/04/23 10:36:20;;;;;;;12.93;11.90;;;;;;;-141.48;100.00;69781.59;5213206;28;20041;-77
2022/04/23 10:39:21;;;;;;;14.85;13.43;;;;;;;-141.48;100.00;69781.59;5214422;28;20156;-77
2022/04/23 10:41:54;;;;;;;14.00;12.93;;;;;;;-141.48;100.00;69781.59;5214634;28;20475;-78
2022/04/23 10:44:30;;;;;;;15.18;13.63;;;;;;;-141.48;100.00;69781.59;5214105;28;20037;-77
2022/04/23 10:47:11;;;;;;;14.85;13.48;;;;;;;-141.48;100.00;69781.59;5214023;28;20026;-77
2022/04/23 10:49:43;;;;;;;15.00;13.23;;;;;;;-141.48;100.00;69781.59;5213732;28;20029;-77
2022/04/23 10:52:34;;;;;;;15.07;13.98;;;;;;;-141.48;100.00;69781.59;5206937;28;20029;-78
2022/04/23 10:55:05;;;;;;;15.35;13.57;;;;;;;-141.48;100.00;69781.59;5209128;28;20037;-79
2022/04/23 10:57:35;;;;;;;9.77;9.00;;;;;;;-141.48;100.00;69781.59;5211597;28;20017;-79
2022/04/23 11:00:30;;;;;;;13.60;12.43;;;;;;;-141.48;100.00;69781.59;5212036;28;20056;-80
2022/04/23 11:03:08;;;;;;;11.15;9.95;;;;;;;-141.48;100.00;69781.59;5211165;28;20033;-79
2022/04/23 11:14:41;;;;;;;13.55;12.35;;;;;;;-141.48;100.00;69781.59;5197725;28;20068;-81
2022/04/23 11:17:20;;;;;;;13.65;11.80;;;;;;;-141.48;100.00;69781.59;5193586;28;20030;-79
2022/04/23 11:19:52;;;;;;;12.80;11.75;;;;;;;-141.48;100.00;69781.59;5205219;28;20458;-79
2022/04/23 11:22:23;;;;;;;14.10;12.98;;;;;;;-141.48;100.00;69781.59;5212273;28;20053;-80
2022/04/23 11:24:55;;;;;;;12.82;11.63;;;;;;;-141.48;100.00;69781.59;5210965;28;20036;-79
2022/04/23 11:27:27;;;;;;;14.40;13.15;;;;;;;-141.48;100.00;69781.59;5211143;28;20014;-79
2022/04/23 11:29:58;;;;;;;13.15;11.85;;;;;;;-141.48;100.00;69781.59;5212692;28;20084;-79
2022/04/23 11:32:30;;;;;;;13.05;11.88;;;;;;;-141.48;100.00;69781.59;5216819;28;20030;-78
2022/04/23 11:35:05;;;;;;;12.73;11.60;;;;;;;-141.48;100.00;69781.59;5211363;28;20057;-83
2022/04/23 11:37:39;;;;;;;13.70;12.73;;;;;;;-141.48;100.00;69781.59;5205852;28;20064;-83
2022/04/23 11:40:12;;;;;;;12.25;11.35;;;;;;;-141.48;100.00;69781.59;5207879;28;20403;-84
2022/04/23 11:42:44;;;;;;;11.77;10.77;;;;;;;-141.48;100.00;69781.59;5218774;28;20108;-79
2022/04/23 11:45:17;;;;;;;14.88;12.23;;;;;;;-141.48;100.00;69781.59;5209394;28;20033;-77
2022/04/23 11:47:47;;;;;;;11.32;10.48;;;;;;;-141.48;100.00;69781.59;5209003;28;20037;-77